createdAt,value
2023-01-06T00:00:04.403Z,7.69
2023-01-06T00:01:04.324Z,7.75
2023-01-06T00:02:04.297Z,7.75
2023-01-06T00:03:04.321Z,7.75
2023-01-06T00:04:04.253Z,7.75
2023-01-06T00:05:04.238Z,7.75
2023-01-06T00:06:04.147Z,7.75
2023-01-06T00:07:04.222Z,7.75
2023-01-06T00:08:04.317Z,7.75
2023-01-06T00:09:04.239Z,7.81
2023-01-06T00:10:04.336Z,7.81
2023-01-06T00:11:04.231Z,7.81
2023-01-06T00:12:04.144Z,7.81
2023-01-06T00:13:04.236Z,7.81
2023-01-06T00:14:04.250Z,7.81
2023-01-06T00:15:04.191Z,7.81
2023-01-06T00:16:04.155Z,7.81
2023-01-06T00:17:04.007Z,7.81
2023-01-06T00:18:04.077Z,7.81
2023-01-06T00:19:03.995Z,7.88
2023-01-06T00:20:03.996Z,7.88
2023-01-06T00:21:03.955Z,7.88
2023-01-06T00:22:04.077Z,7.88
2023-01-06T00:23:03.989Z,7.88
2023-01-06T00:24:03.995Z,7.88
2023-01-06T00:25:03.903Z,7.88
2023-01-06T00:26:03.844Z,7.88
2023-01-06T00:27:03.743Z,7.88
2023-01-06T00:28:03.749Z,7.94
2023-01-06T00:29:03.757Z,7.94
2023-01-06T00:30:03.764Z,7.94
2023-01-06T00:31:03.663Z,7.94
2023-01-06T00:32:03.609Z,7.94
2023-01-06T00:33:03.683Z,7.94
2023-01-06T00:34:03.671Z,7.94
2023-01-06T00:35:03.613Z,7.94
2023-01-06T00:36:03.723Z,7.94
2023-01-06T00:37:03.525Z,8.00
2023-01-06T00:38:03.521Z,8.00
2023-01-06T00:39:03.530Z,8.00
2023-01-06T00:40:04.508Z,8.00
2023-01-06T00:41:03.436Z,8.00
2023-01-06T00:42:03.436Z,8.00
2023-01-06T00:43:04.390Z,8.00
2023-01-06T00:44:04.385Z,8.00
2023-01-06T00:45:04.235Z,8.00
2023-01-06T00:46:04.356Z,8.00
2023-01-06T00:47:04.336Z,8.06
2023-01-06T00:48:04.187Z,8.00
2023-01-06T00:49:05.734Z,8.06
2023-01-06T00:50:04.154Z,8.06
2023-01-06T00:51:04.230Z,8.06
2023-01-06T00:52:04.075Z,8.06
2023-01-06T00:53:04.147Z,8.06
2023-01-06T00:54:04.228Z,8.06
2023-01-06T00:55:04.105Z,8.06
2023-01-06T00:56:04.078Z,8.06
2023-01-06T00:57:04.009Z,8.06
2023-01-06T00:58:03.937Z,8.06
2023-01-06T00:59:03.914Z,8.06
2023-01-06T01:00:03.861Z,8.06
2023-01-06T01:01:04.202Z,8.12
2023-01-06T01:02:03.935Z,8.12
2023-01-06T01:03:03.867Z,8.12
2023-01-06T01:04:03.782Z,8.12
2023-01-06T01:05:03.666Z,8.12
2023-01-06T01:06:03.701Z,8.12
2023-01-06T01:07:03.756Z,8.12
2023-01-06T01:08:03.767Z,8.19
2023-01-06T01:09:03.875Z,8.19
2023-01-06T01:10:04.088Z,8.19
2023-01-06T01:11:04.123Z,8.19
2023-01-06T01:12:03.829Z,8.19
2023-01-06T01:13:03.875Z,8.19
2023-01-06T01:14:03.854Z,8.19
2023-01-06T01:15:03.751Z,8.19
2023-01-06T01:16:04.064Z,8.19
2023-01-06T01:17:04.074Z,8.19
2023-01-06T01:18:03.986Z,8.25
2023-01-06T01:19:03.916Z,8.19
2023-01-06T01:20:03.857Z,8.25
2023-01-06T01:21:03.745Z,8.25
2023-01-06T01:22:03.707Z,8.25
2023-01-06T01:23:03.584Z,8.25
2023-01-06T01:24:03.674Z,8.25
2023-01-06T01:25:03.756Z,8.25
2023-01-06T01:26:03.668Z,8.25
2023-01-06T01:27:03.715Z,8.25
2023-01-06T01:28:03.578Z,8.25
2023-01-06T01:29:03.538Z,8.25
2023-01-06T01:30:03.530Z,8.25
2023-01-06T01:31:03.545Z,8.25
2023-01-06T01:32:03.431Z,8.31
2023-01-06T01:33:03.431Z,8.31
2023-01-06T01:34:04.386Z,8.31
2023-01-06T01:35:03.586Z,8.31
2023-01-06T01:36:03.541Z,8.31
2023-01-06T01:37:03.586Z,8.31
2023-01-06T01:38:03.609Z,8.31
2023-01-06T01:39:03.598Z,8.31
2023-01-06T01:40:03.511Z,8.31
2023-01-06T01:41:04.386Z,8.31
2023-01-06T01:42:04.312Z,8.31
2023-01-06T01:43:04.233Z,8.31
2023-01-06T01:44:04.221Z,8.31
2023-01-06T01:45:04.092Z,8.31
2023-01-06T01:46:04.148Z,8.38
2023-01-06T01:47:04.225Z,8.38
2023-01-06T01:48:04.314Z,8.38
2023-01-06T01:49:04.227Z,8.38
2023-01-06T01:50:04.170Z,8.38
2023-01-06T01:51:04.254Z,8.38
2023-01-06T01:52:04.237Z,8.38
2023-01-06T01:53:04.317Z,8.38
2023-01-06T01:54:04.265Z,8.38
2023-01-06T01:55:04.388Z,8.38
2023-01-06T01:56:04.394Z,8.38
2023-01-06T01:57:04.389Z,8.44
2023-01-06T01:58:04.335Z,8.44
2023-01-06T01:59:04.239Z,8.44
2023-01-06T02:00:04.238Z,8.44
2023-01-06T02:01:04.212Z,8.44
2023-01-06T02:02:04.187Z,8.44
2023-01-06T02:03:04.183Z,8.44
2023-01-06T02:04:04.011Z,8.44
2023-01-06T02:05:03.925Z,8.44
2023-01-06T02:06:04.020Z,8.44
2023-01-06T02:07:03.832Z,8.44
2023-01-06T02:08:03.843Z,8.44
2023-01-06T02:09:03.871Z,8.44
2023-01-06T02:10:03.748Z,8.50
2023-01-06T02:11:03.801Z,8.50
2023-01-06T02:12:03.877Z,8.50
2023-01-06T02:13:03.790Z,8.50
2023-01-06T02:14:03.668Z,8.50
2023-01-06T02:15:03.587Z,8.50
2023-01-06T02:16:03.627Z,8.50
2023-01-06T02:17:03.602Z,8.50
2023-01-06T02:18:03.554Z,8.50
2023-01-06T02:19:03.509Z,8.50
2023-01-06T02:20:03.608Z,8.50
2023-01-06T02:21:03.535Z,8.50
2023-01-06T02:22:04.470Z,8.50
2023-01-06T02:23:03.463Z,8.56
2023-01-06T02:24:04.478Z,8.56
2023-01-06T02:25:04.387Z,8.56
2023-01-06T02:26:04.335Z,8.56
2023-01-06T02:27:04.322Z,8.56
2023-01-06T02:28:04.306Z,8.56
2023-01-06T02:29:04.163Z,8.56
2023-01-06T02:30:04.152Z,8.56
2023-01-06T02:31:04.157Z,8.56
2023-01-06T02:32:03.990Z,8.56
2023-01-06T02:33:03.914Z,8.56
2023-01-06T02:34:03.923Z,8.56
2023-01-06T02:35:03.834Z,8.56
2023-01-06T02:36:03.852Z,8.56
2023-01-06T02:37:03.745Z,8.56
2023-01-06T02:38:03.767Z,8.56
2023-01-06T02:39:03.764Z,8.56
2023-01-06T02:40:03.678Z,8.56
2023-01-06T02:41:03.672Z,8.56
2023-01-06T02:42:03.590Z,8.56
2023-01-06T02:43:03.507Z,8.56
2023-01-06T02:44:03.611Z,8.56
2023-01-06T02:45:03.617Z,8.56
2023-01-06T02:46:03.496Z,8.56
2023-01-06T02:47:03.444Z,8.62
2023-01-06T02:48:03.516Z,8.56
2023-01-06T02:49:03.508Z,8.56
2023-01-06T02:50:03.522Z,8.62
2023-01-06T02:51:04.392Z,8.62
2023-01-06T02:52:04.379Z,8.62
2023-01-06T02:53:04.309Z,8.62
2023-01-06T02:54:04.480Z,8.62
2023-01-06T02:55:04.350Z,8.62
2023-01-06T02:56:04.319Z,8.62
2023-01-06T02:57:04.319Z,8.62
2023-01-06T02:58:04.238Z,8.62
2023-01-06T02:59:04.154Z,8.62
2023-01-06T03:00:03.988Z,8.62
2023-01-06T03:01:04.123Z,8.62
2023-01-06T03:02:04.198Z,8.69
2023-01-06T03:03:04.067Z,8.69
2023-01-06T03:04:03.903Z,8.69
2023-01-06T03:05:03.914Z,8.69
2023-01-06T03:06:03.770Z,8.69
2023-01-06T03:07:03.685Z,8.69
2023-01-06T03:08:03.810Z,8.69
2023-01-06T03:09:03.701Z,8.69
2023-01-06T03:10:03.590Z,8.69
2023-01-06T03:11:03.618Z,8.69
2023-01-06T03:12:03.597Z,8.69
2023-01-06T03:13:03.553Z,8.75
2023-01-06T03:14:04.487Z,8.75
2023-01-06T03:15:04.393Z,8.75
2023-01-06T03:16:04.163Z,8.69
2023-01-06T03:17:03.993Z,8.75
2023-01-06T03:18:04.073Z,8.75
2023-01-06T03:19:04.073Z,8.75
2023-01-06T03:20:04.156Z,8.75
2023-01-06T03:21:04.079Z,8.75
2023-01-06T03:22:03.998Z,8.75
2023-01-06T03:23:03.913Z,8.75
2023-01-06T03:24:03.942Z,8.75
2023-01-06T03:25:03.831Z,8.75
2023-01-06T03:26:03.774Z,8.81
2023-01-06T03:27:03.683Z,8.75
2023-01-06T03:28:03.748Z,8.75
2023-01-06T03:29:03.831Z,8.75
2023-01-06T03:30:03.665Z,8.75
2023-01-06T03:31:03.756Z,8.75
2023-01-06T03:32:03.763Z,8.75
2023-01-06T03:33:03.680Z,8.75
2023-01-06T03:34:03.639Z,8.75
2023-01-06T03:35:03.591Z,8.75
2023-01-06T03:36:03.597Z,8.75
2023-01-06T03:37:03.541Z,8.75
2023-01-06T03:38:03.471Z,8.75
2023-01-06T03:39:03.516Z,8.75
2023-01-06T03:40:04.502Z,8.75
2023-01-06T03:41:04.386Z,8.81
2023-01-06T03:42:04.414Z,8.81
2023-01-06T03:43:04.389Z,8.81
2023-01-06T03:44:04.387Z,8.81
2023-01-06T03:45:04.230Z,8.81
2023-01-06T03:46:04.229Z,8.81
2023-01-06T03:47:04.170Z,8.81
2023-01-06T03:48:04.223Z,8.81
2023-01-06T03:49:04.164Z,8.81
2023-01-06T03:50:04.149Z,8.81
2023-01-06T03:51:04.090Z,8.81
2023-01-06T03:52:04.164Z,8.81
2023-01-06T03:53:04.165Z,8.81
2023-01-06T03:54:04.160Z,8.81
2023-01-06T03:55:04.011Z,8.81
2023-01-06T03:56:04.007Z,8.81
2023-01-06T03:57:03.911Z,8.81
2023-01-06T03:58:04.315Z,8.81
2023-01-06T03:59:04.312Z,8.81
2023-01-06T04:00:04.231Z,8.81
2023-01-06T04:01:04.303Z,8.81
2023-01-06T04:02:04.171Z,8.81
2023-01-06T04:03:04.339Z,8.81
2023-01-06T04:04:04.328Z,8.81
2023-01-06T04:05:04.230Z,8.81
2023-01-06T04:06:04.151Z,8.75
2023-01-06T04:07:04.071Z,8.81
2023-01-06T04:08:03.988Z,8.81
2023-01-06T04:09:04.154Z,8.81
2023-01-06T04:10:03.993Z,8.81
2023-01-06T04:11:03.986Z,8.81
2023-01-06T04:12:03.994Z,8.81
2023-01-06T04:13:04.003Z,8.81
2023-01-06T04:14:03.938Z,8.81
2023-01-06T04:15:03.912Z,8.81
2023-01-06T04:16:03.936Z,8.81
2023-01-06T04:17:03.989Z,8.81
2023-01-06T04:18:04.132Z,8.81
2023-01-06T04:19:04.071Z,8.81
2023-01-06T04:20:04.073Z,8.81
2023-01-06T04:21:04.234Z,8.81
2023-01-06T04:22:04.150Z,8.88
2023-01-06T04:23:04.081Z,8.81
2023-01-06T04:24:03.918Z,8.81
2023-01-06T04:25:03.916Z,8.88
2023-01-06T04:26:03.907Z,8.81
2023-01-06T04:27:03.838Z,8.81
2023-01-06T04:28:03.759Z,8.81
2023-01-06T04:29:03.756Z,8.81
2023-01-06T04:30:03.670Z,8.81
2023-01-06T04:31:03.600Z,8.81
2023-01-06T04:32:03.688Z,8.81
2023-01-06T04:33:03.610Z,8.81
2023-01-06T04:34:03.703Z,8.81
2023-01-06T04:35:03.631Z,8.81
2023-01-06T04:36:03.457Z,8.81
2023-01-06T04:37:04.480Z,8.88
2023-01-06T04:38:04.308Z,8.88
2023-01-06T04:39:04.308Z,8.88
2023-01-06T04:40:04.226Z,8.88
2023-01-06T04:41:04.323Z,8.88
2023-01-06T04:42:04.241Z,8.88
2023-01-06T04:43:04.180Z,8.88
2023-01-06T04:44:04.082Z,8.88
2023-01-06T04:45:03.913Z,8.88
2023-01-06T04:46:04.061Z,8.88
2023-01-06T04:47:03.931Z,8.88
2023-01-06T04:48:03.838Z,8.88
2023-01-06T04:49:03.788Z,8.88
2023-01-06T04:50:03.752Z,8.88
2023-01-06T04:51:03.752Z,8.88
2023-01-06T04:52:03.844Z,8.94
2023-01-06T04:53:03.755Z,8.94
2023-01-06T04:54:03.730Z,8.94
2023-01-06T04:55:03.608Z,8.94
2023-01-06T04:56:03.463Z,8.94
2023-01-06T04:57:04.403Z,8.94
2023-01-06T04:58:03.430Z,8.94
2023-01-06T04:59:04.397Z,8.94
2023-01-06T05:00:04.385Z,9.00
2023-01-06T05:01:04.541Z,8.94
2023-01-06T05:02:04.462Z,9.00
2023-01-06T05:03:04.317Z,9.00
2023-01-06T05:04:04.278Z,9.00
2023-01-06T05:05:09.302Z,9.00
2023-01-06T05:06:04.168Z,9.00
2023-01-06T05:07:04.086Z,9.00
2023-01-06T05:08:04.074Z,9.00
2023-01-06T05:09:03.950Z,9.00
2023-01-06T05:10:04.232Z,9.00
2023-01-06T05:11:04.242Z,9.00
2023-01-06T05:12:04.153Z,9.00
2023-01-06T05:13:04.077Z,9.00
2023-01-06T05:14:04.097Z,9.00
2023-01-06T05:15:04.016Z,9.00
2023-01-06T05:16:04.156Z,9.06
2023-01-06T05:17:04.068Z,9.06
2023-01-06T05:18:03.996Z,9.06
2023-01-06T05:19:03.989Z,9.06
2023-01-06T05:20:04.006Z,9.06
2023-01-06T05:21:04.064Z,9.06
2023-01-06T05:22:04.074Z,9.06
2023-01-06T05:23:04.075Z,9.06
2023-01-06T05:24:04.074Z,9.06
2023-01-06T05:25:04.267Z,9.06
2023-01-06T05:26:03.989Z,9.06
2023-01-06T05:27:03.904Z,9.06
2023-01-06T05:28:03.908Z,9.06
2023-01-06T05:29:03.832Z,9.06
2023-01-06T05:30:03.757Z,9.06
2023-01-06T05:31:04.006Z,9.06
2023-01-06T05:32:03.839Z,9.06
2023-01-06T05:33:03.862Z,9.06
2023-01-06T05:34:03.828Z,9.06
2023-01-06T05:35:03.847Z,9.06
2023-01-06T05:36:03.849Z,9.06
2023-01-06T05:37:03.798Z,9.06
2023-01-06T05:38:03.767Z,9.06
2023-01-06T05:39:03.841Z,9.12
2023-01-06T05:40:03.857Z,9.06
2023-01-06T05:41:03.756Z,9.06
2023-01-06T05:42:03.706Z,9.06
2023-01-06T05:43:03.674Z,9.12
2023-01-06T05:44:03.765Z,9.12
2023-01-06T05:45:03.684Z,9.06
2023-01-06T05:46:03.663Z,9.12
2023-01-06T05:47:03.602Z,9.06
2023-01-06T05:48:03.430Z,9.06
2023-01-06T05:49:04.405Z,9.12
2023-01-06T05:50:04.389Z,9.06
2023-01-06T05:51:04.317Z,9.12
2023-01-06T05:52:04.307Z,9.12
2023-01-06T05:53:04.401Z,9.12
2023-01-06T05:54:04.323Z,9.12
2023-01-06T05:55:04.245Z,9.12
2023-01-06T05:56:04.238Z,9.12
2023-01-06T05:57:04.158Z,9.12
2023-01-06T05:58:04.072Z,9.06
2023-01-06T05:59:04.095Z,9.06
2023-01-06T06:00:04.158Z,9.06
2023-01-06T06:01:04.243Z,9.06
2023-01-06T06:02:04.051Z,9.06
2023-01-06T06:03:04.088Z,9.06
2023-01-06T06:04:04.011Z,9.06
2023-01-06T06:05:03.949Z,9.06
2023-01-06T06:06:03.836Z,9.06
2023-01-06T06:07:03.862Z,9.06
2023-01-06T06:08:03.673Z,9.06
2023-01-06T06:09:03.755Z,9.06
2023-01-06T06:10:03.686Z,9.06
2023-01-06T06:11:03.785Z,9.00
2023-01-06T06:12:03.601Z,9.00
2023-01-06T06:13:03.676Z,9.00
2023-01-06T06:14:03.671Z,9.00
2023-01-06T06:15:03.594Z,9.00
2023-01-06T06:16:03.514Z,9.00
2023-01-06T06:17:04.487Z,8.94
2023-01-06T06:18:04.429Z,8.94
2023-01-06T06:19:04.403Z,8.94
2023-01-06T06:20:04.398Z,8.94
2023-01-06T06:21:03.558Z,8.94
2023-01-06T06:22:03.437Z,8.94
2023-01-06T06:23:04.478Z,8.94
2023-01-06T06:24:03.439Z,8.94
2023-01-06T06:25:03.477Z,8.94
2023-01-06T06:26:03.433Z,8.88
2023-01-06T06:27:04.396Z,8.88
2023-01-06T06:28:04.346Z,8.88
2023-01-06T06:29:04.224Z,8.88
2023-01-06T06:30:04.309Z,8.88
2023-01-06T06:31:04.419Z,8.88
2023-01-06T06:32:04.242Z,8.88
2023-01-06T06:33:04.189Z,8.81
2023-01-06T06:34:04.164Z,8.81
2023-01-06T06:35:04.077Z,8.81
2023-01-06T06:36:03.991Z,8.81
2023-01-06T06:37:03.917Z,8.81
2023-01-06T06:38:03.823Z,8.81
2023-01-06T06:39:03.925Z,8.81
2023-01-06T06:40:03.974Z,8.81
2023-01-06T06:41:03.832Z,8.81
2023-01-06T06:42:03.749Z,8.81
2023-01-06T06:43:03.756Z,8.81
2023-01-06T06:44:03.676Z,8.81
2023-01-06T06:45:03.608Z,8.81
2023-01-06T06:46:03.616Z,8.81
2023-01-06T06:47:03.636Z,8.81
2023-01-06T06:48:03.839Z,8.81
2023-01-06T06:49:03.765Z,8.81
2023-01-06T06:50:03.598Z,8.81
2023-01-06T06:51:03.512Z,8.81
2023-01-06T06:52:03.551Z,8.81
2023-01-06T06:53:04.385Z,8.81
2023-01-06T06:54:04.388Z,8.81
2023-01-06T06:55:04.386Z,8.81
2023-01-06T06:56:04.391Z,8.81
2023-01-06T06:57:04.386Z,8.88
2023-01-06T06:58:04.244Z,8.88
2023-01-06T06:59:04.230Z,8.88
2023-01-06T07:00:04.251Z,8.88
2023-01-06T07:01:04.174Z,8.88
2023-01-06T07:02:04.188Z,8.88
2023-01-06T07:03:04.082Z,8.94
2023-01-06T07:04:04.990Z,8.94
2023-01-06T07:05:04.025Z,8.94
2023-01-06T07:06:03.913Z,8.94
2023-01-06T07:07:03.999Z,8.94
2023-01-06T07:08:03.917Z,8.94
2023-01-06T07:09:03.933Z,8.94
2023-01-06T07:10:03.872Z,8.94
2023-01-06T07:11:03.764Z,8.94
2023-01-06T07:12:03.675Z,8.94
2023-01-06T07:13:05.023Z,8.94
2023-01-06T07:14:03.606Z,8.94
2023-01-06T07:15:03.436Z,9.00
2023-01-06T07:16:04.530Z,9.00
2023-01-06T07:17:04.397Z,9.00
2023-01-06T07:18:04.398Z,9.00
2023-01-06T07:19:04.240Z,9.00
2023-01-06T07:20:04.242Z,9.00
2023-01-06T07:21:04.171Z,9.00
2023-01-06T07:22:04.068Z,9.00
2023-01-06T07:23:04.003Z,9.00
2023-01-06T07:24:03.944Z,9.00
2023-01-06T07:25:03.875Z,9.00
2023-01-06T07:26:03.788Z,9.00
2023-01-06T07:27:03.837Z,9.00
2023-01-06T07:28:03.941Z,9.00
2023-01-06T07:29:03.775Z,9.06
2023-01-06T07:30:03.710Z,9.06
2023-01-06T07:31:03.767Z,9.06
2023-01-06T07:32:03.602Z,9.12
2023-01-06T07:33:03.426Z,9.12
2023-01-06T07:34:04.309Z,9.19
2023-01-06T07:35:04.393Z,9.19
2023-01-06T07:36:04.396Z,9.19
2023-01-06T07:37:04.323Z,9.25
2023-01-06T07:38:04.149Z,9.25
2023-01-06T07:39:04.162Z,9.25
2023-01-06T07:40:04.168Z,9.25
2023-01-06T07:41:04.158Z,9.25
2023-01-06T07:42:04.081Z,9.25
2023-01-06T07:43:04.239Z,9.25
2023-01-06T07:44:04.315Z,9.31
2023-01-06T07:45:04.158Z,9.31
2023-01-06T07:46:04.291Z,9.31
2023-01-06T07:47:04.323Z,9.31
2023-01-06T07:48:04.163Z,9.31
2023-01-06T07:49:04.065Z,9.31
2023-01-06T07:50:04.151Z,9.31
2023-01-06T07:51:04.095Z,9.38
2023-01-06T07:52:04.092Z,9.38
2023-01-06T07:53:04.009Z,9.38
2023-01-06T07:54:03.907Z,9.38
2023-01-06T07:55:03.840Z,9.38
2023-01-06T07:56:03.754Z,9.38
2023-01-06T07:57:03.681Z,9.38
2023-01-06T07:58:03.603Z,9.38
2023-01-06T07:59:03.478Z,9.38
2023-01-06T08:00:04.471Z,9.38
2023-01-06T08:01:04.461Z,9.38
2023-01-06T08:02:04.438Z,9.38
2023-01-06T08:03:04.481Z,9.38
2023-01-06T08:04:04.316Z,9.44
2023-01-06T08:05:04.244Z,9.44
2023-01-06T08:06:04.337Z,9.44
2023-01-06T08:07:04.276Z,9.44
2023-01-06T08:08:04.164Z,9.44
2023-01-06T08:09:04.124Z,9.44
2023-01-06T08:10:04.156Z,9.50
2023-01-06T08:11:04.004Z,9.44
2023-01-06T08:12:03.998Z,9.50
2023-01-06T08:13:03.954Z,9.50
2023-01-06T08:14:03.875Z,9.44
2023-01-06T08:15:03.830Z,9.50
2023-01-06T08:16:03.854Z,9.50
2023-01-06T08:17:03.777Z,9.50
2023-01-06T08:18:03.700Z,9.50
2023-01-06T08:19:03.713Z,9.50
2023-01-06T08:20:03.608Z,9.50
2023-01-06T08:21:03.526Z,9.56
2023-01-06T08:22:03.522Z,9.56
2023-01-06T08:23:03.584Z,9.56
2023-01-06T08:24:03.506Z,9.56
2023-01-06T08:25:03.515Z,9.62
2023-01-06T08:26:04.388Z,9.62
2023-01-06T08:27:04.402Z,9.62
2023-01-06T08:28:04.483Z,9.62
2023-01-06T08:29:04.319Z,9.62
2023-01-06T08:30:04.239Z,9.69
2023-01-06T08:31:04.383Z,9.69
2023-01-06T08:32:10.189Z,9.69
2023-01-06T08:33:04.232Z,9.69
2023-01-06T08:34:03.599Z,9.69
2023-01-06T08:35:03.431Z,9.75
2023-01-06T08:36:03.515Z,9.75
2023-01-06T08:37:03.526Z,9.75
2023-01-06T08:38:04.509Z,9.75
2023-01-06T08:39:04.479Z,9.75
2023-01-06T08:40:04.311Z,9.81
2023-01-06T08:41:04.351Z,9.81
2023-01-06T08:42:04.311Z,9.81
2023-01-06T08:43:04.239Z,9.81
2023-01-06T08:44:04.191Z,9.81
2023-01-06T08:45:04.186Z,9.88
2023-01-06T08:46:04.134Z,9.88
2023-01-06T08:47:04.001Z,9.88
2023-01-06T08:48:04.391Z,9.94
2023-01-06T08:49:04.310Z,9.88
2023-01-06T08:50:04.393Z,9.88
2023-01-06T08:51:04.310Z,9.88
2023-01-06T08:52:04.236Z,9.88
2023-01-06T08:53:04.168Z,9.94
2023-01-06T08:54:04.069Z,9.94
2023-01-06T08:55:04.006Z,10.00
2023-01-06T08:56:03.988Z,10.00
2023-01-06T08:57:04.044Z,10.00
2023-01-06T08:58:03.908Z,10.06
2023-01-06T08:59:03.933Z,10.06
2023-01-06T09:00:03.765Z,10.06
2023-01-06T09:01:04.098Z,10.06
2023-01-06T09:02:04.214Z,10.06
2023-01-06T09:03:03.912Z,10.06
2023-01-06T09:04:03.875Z,10.06
2023-01-06T09:05:03.888Z,10.06
2023-01-06T09:06:03.829Z,10.12
2023-01-06T09:07:03.679Z,10.12
2023-01-06T09:08:03.691Z,10.12
2023-01-06T09:09:03.561Z,10.12
2023-01-06T09:10:03.524Z,10.12
2023-01-06T09:11:03.521Z,10.19
2023-01-06T09:12:05.768Z,10.19
2023-01-06T09:13:03.518Z,10.19
2023-01-06T09:14:04.399Z,10.19
2023-01-06T09:15:04.404Z,10.25
2023-01-06T09:16:04.443Z,10.25
2023-01-06T09:17:04.421Z,10.25
2023-01-06T09:18:03.430Z,10.25
2023-01-06T09:19:03.530Z,10.31
2023-01-06T09:20:04.391Z,10.31
2023-01-06T09:21:04.310Z,10.31
2023-01-06T09:22:04.316Z,10.31
2023-01-06T09:23:04.393Z,10.31
2023-01-06T09:24:04.311Z,10.38
2023-01-06T09:25:04.179Z,10.38
2023-01-06T09:26:04.159Z,10.38
2023-01-06T09:27:04.150Z,10.38
2023-01-06T09:28:04.091Z,10.38
2023-01-06T09:29:03.999Z,10.44
2023-01-06T09:30:03.917Z,10.44
2023-01-06T09:31:03.896Z,10.44
2023-01-06T09:32:03.731Z,10.44
2023-01-06T09:33:03.710Z,10.44
2023-01-06T09:34:03.620Z,10.44
2023-01-06T09:35:03.750Z,10.50
2023-01-06T09:36:03.591Z,10.50
2023-01-06T09:37:03.547Z,10.50
2023-01-06T09:38:03.447Z,10.50
2023-01-06T09:39:03.429Z,10.50
2023-01-06T09:40:04.394Z,10.50
2023-01-06T09:41:04.325Z,10.56
2023-01-06T09:42:04.226Z,10.56
2023-01-06T09:43:04.246Z,10.56
2023-01-06T09:44:04.157Z,10.56
2023-01-06T09:45:04.312Z,10.56
2023-01-06T09:46:04.171Z,10.56
2023-01-06T09:47:04.165Z,10.56
2023-01-06T09:48:04.103Z,10.56
2023-01-06T09:49:04.154Z,10.56
2023-01-06T09:50:04.074Z,10.56
2023-01-06T09:51:04.100Z,10.62
2023-01-06T09:52:04.084Z,10.62
2023-01-06T09:53:04.076Z,10.62
2023-01-06T09:54:04.180Z,10.62
2023-01-06T09:55:04.095Z,10.62
2023-01-06T09:56:03.999Z,10.62
2023-01-06T09:57:04.014Z,10.62
2023-01-06T09:58:04.023Z,10.62
2023-01-06T09:59:04.004Z,10.69
2023-01-06T10:00:03.925Z,10.69
2023-01-06T10:01:04.000Z,10.69
2023-01-06T10:02:04.210Z,10.69
2023-01-06T10:03:03.920Z,10.69
2023-01-06T10:04:04.001Z,10.69
2023-01-06T10:05:03.931Z,10.69
2023-01-06T10:06:03.969Z,10.69
2023-01-06T10:07:03.835Z,10.69
2023-01-06T10:08:03.834Z,10.69
2023-01-06T10:09:03.915Z,10.69
2023-01-06T10:10:03.842Z,10.69
2023-01-06T10:11:03.930Z,10.69
2023-01-06T10:12:03.847Z,10.69
2023-01-06T10:13:03.943Z,10.69
2023-01-06T10:14:03.832Z,10.69
2023-01-06T10:15:03.682Z,10.69
2023-01-06T10:16:03.698Z,10.69
2023-01-06T10:17:03.785Z,10.69
2023-01-06T10:18:03.795Z,10.62
2023-01-06T10:19:03.716Z,10.62
2023-01-06T10:20:03.588Z,10.62
2023-01-06T10:21:03.519Z,10.69
2023-01-06T10:22:03.563Z,10.69
2023-01-06T10:23:03.516Z,10.69
2023-01-06T10:24:04.478Z,10.69
2023-01-06T10:25:04.309Z,10.69
2023-01-06T10:26:04.323Z,10.69
2023-01-06T10:27:04.320Z,10.69
2023-01-06T10:28:04.184Z,10.69
2023-01-06T10:29:04.075Z,10.69
2023-01-06T10:30:04.155Z,10.69
2023-01-06T10:31:04.064Z,10.69
2023-01-06T10:32:04.021Z,10.69
2023-01-06T10:33:03.830Z,10.69
2023-01-06T10:34:03.743Z,10.69
2023-01-06T10:35:03.759Z,10.69
2023-01-06T10:36:03.779Z,10.75
2023-01-06T10:37:03.680Z,10.75
2023-01-06T10:38:03.765Z,10.75
2023-01-06T10:39:03.852Z,10.75
2023-01-06T10:40:03.758Z,10.75
2023-01-06T10:41:04.024Z,10.75
2023-01-06T10:42:03.683Z,10.75
2023-01-06T10:43:03.722Z,10.75
2023-01-06T10:44:03.606Z,10.75
2023-01-06T10:45:03.610Z,10.75
2023-01-06T10:46:03.602Z,10.75
2023-01-06T10:47:03.536Z,10.75
2023-01-06T10:48:04.505Z,10.75
2023-01-06T10:49:04.334Z,10.75
2023-01-06T10:50:04.306Z,10.75
2023-01-06T10:51:04.231Z,10.75
2023-01-06T10:52:04.149Z,10.75
2023-01-06T10:53:04.108Z,10.75
2023-01-06T10:54:04.005Z,10.81
2023-01-06T10:55:03.905Z,10.81
2023-01-06T10:56:03.834Z,10.81
2023-01-06T10:57:03.924Z,10.81
2023-01-06T10:58:03.758Z,10.75
2023-01-06T10:59:03.777Z,10.75
2023-01-06T11:00:03.761Z,10.75
2023-01-06T11:01:03.882Z,10.75
2023-01-06T11:02:03.825Z,10.75
2023-01-06T11:03:14.110Z,10.75
2023-01-06T11:04:03.511Z,10.75
2023-01-06T11:05:03.443Z,10.75
2023-01-06T11:06:04.406Z,10.69
2023-01-06T11:07:04.399Z,10.69
2023-01-06T11:08:04.526Z,10.69
2023-01-06T11:09:04.306Z,10.69
2023-01-06T11:10:04.394Z,10.69
2023-01-06T11:11:04.426Z,10.69
2023-01-06T11:12:04.330Z,10.69
2023-01-06T11:13:04.265Z,10.69
2023-01-06T11:14:04.334Z,10.62
2023-01-06T11:15:04.390Z,10.62
2023-01-06T11:16:04.338Z,10.62
2023-01-06T11:17:04.419Z,10.62
2023-01-06T11:18:04.395Z,10.69
2023-01-06T11:19:04.422Z,10.62
2023-01-06T11:20:03.597Z,10.62
2023-01-06T11:21:03.431Z,10.62
2023-01-06T11:22:03.435Z,10.62
2023-01-06T11:23:04.496Z,10.62
2023-01-06T11:24:04.387Z,10.56
2023-01-06T11:25:03.529Z,10.56
2023-01-06T11:26:03.543Z,10.62
2023-01-06T11:27:03.502Z,10.62
2023-01-06T11:28:04.392Z,10.56
2023-01-06T11:29:04.313Z,10.56
2023-01-06T11:30:04.313Z,10.56
2023-01-06T11:31:04.141Z,10.56
2023-01-06T11:32:04.238Z,10.56
2023-01-06T11:33:04.077Z,10.56
2023-01-06T11:34:03.992Z,10.56
2023-01-06T11:35:03.903Z,10.50
2023-01-06T11:36:03.911Z,10.50
2023-01-06T11:37:03.915Z,10.50
2023-01-06T11:38:03.864Z,10.50
2023-01-06T11:39:03.929Z,10.50
2023-01-06T11:40:10.497Z,10.50
2023-01-06T11:41:03.860Z,10.50
2023-01-06T11:42:03.774Z,10.50
2023-01-06T11:43:03.873Z,10.50
2023-01-06T11:44:03.795Z,10.50
2023-01-06T11:45:03.684Z,10.44
2023-01-06T11:46:03.785Z,10.44
2023-01-06T11:47:03.632Z,10.44
2023-01-06T11:48:03.608Z,10.44
2023-01-06T11:49:03.555Z,10.44
2023-01-06T11:50:03.436Z,10.44
2023-01-06T11:51:04.408Z,10.44
2023-01-06T11:52:03.518Z,10.44
2023-01-06T11:53:03.547Z,10.44
2023-01-06T11:54:03.516Z,10.44
2023-01-06T11:55:03.670Z,10.44
2023-01-06T11:56:03.784Z,10.44
2023-01-06T11:57:03.679Z,10.38
2023-01-06T11:58:03.698Z,10.38
2023-01-06T11:59:03.627Z,10.38
2023-01-06T12:00:03.605Z,10.38
2023-01-06T12:01:05.127Z,10.38
2023-01-06T12:02:03.589Z,10.38
2023-01-06T12:03:03.600Z,10.38
2023-01-06T12:04:03.502Z,10.38
2023-01-06T12:05:03.522Z,10.38
2023-01-06T12:06:04.484Z,10.38
2023-01-06T12:07:04.419Z,10.38
2023-01-06T12:08:04.312Z,10.38
2023-01-06T12:09:04.310Z,10.31
2023-01-06T12:10:04.319Z,10.38
2023-01-06T12:11:04.248Z,10.38
2023-01-06T12:12:04.325Z,10.38
2023-01-06T12:13:04.284Z,10.38
2023-01-06T12:14:23.432Z,10.31
2023-01-06T12:15:04.090Z,10.38
2023-01-06T12:16:04.066Z,10.38
2023-01-06T12:17:04.129Z,10.38
2023-01-06T12:18:04.039Z,10.38
2023-01-06T12:19:03.988Z,10.38
2023-01-06T12:20:03.918Z,10.38
2023-01-06T12:21:03.908Z,10.38
2023-01-06T12:22:03.934Z,10.38
2023-01-06T12:23:03.990Z,10.38
2023-01-06T12:24:03.916Z,10.38
2023-01-06T12:25:03.995Z,10.38
2023-01-06T12:26:03.986Z,10.38
2023-01-06T12:27:03.917Z,10.38
2023-01-06T12:28:03.916Z,10.38
2023-01-06T12:29:03.890Z,10.38
2023-01-06T12:30:03.774Z,10.38
2023-01-06T12:31:03.909Z,10.44
2023-01-06T12:32:03.747Z,10.44
2023-01-06T12:33:03.753Z,10.44
2023-01-06T12:34:04.009Z,10.44
2023-01-06T12:35:03.936Z,10.44
2023-01-06T12:36:03.846Z,10.44
2023-01-06T12:37:03.860Z,10.44
2023-01-06T12:38:03.764Z,10.50
2023-01-06T12:39:03.766Z,10.50
2023-01-06T12:40:03.777Z,10.50
2023-01-06T12:41:03.782Z,10.50
2023-01-06T12:42:03.682Z,10.50
2023-01-06T12:43:03.742Z,10.50
2023-01-06T12:44:03.767Z,10.50
2023-01-06T12:45:03.837Z,10.56
2023-01-06T12:46:03.870Z,10.56
2023-01-06T12:47:03.926Z,10.56
2023-01-06T12:48:04.071Z,10.56
2023-01-06T12:49:03.913Z,10.56
2023-01-06T12:50:03.916Z,10.56
2023-01-06T12:51:03.830Z,10.56
2023-01-06T12:52:03.860Z,10.56
2023-01-06T12:53:07.259Z,10.62
2023-01-06T12:54:03.881Z,10.62
2023-01-06T12:55:03.752Z,10.56
2023-01-06T12:56:03.715Z,10.56
2023-01-06T12:57:03.700Z,10.56
2023-01-06T12:58:03.616Z,10.56
2023-01-06T12:59:03.435Z,10.62
2023-01-06T13:00:04.405Z,10.62
2023-01-06T13:01:04.505Z,10.62
2023-01-06T13:02:04.508Z,10.62
2023-01-06T13:03:04.255Z,10.62
2023-01-06T13:04:04.348Z,10.62
2023-01-06T13:05:04.163Z,10.62
2023-01-06T13:06:04.158Z,10.69
2023-01-06T13:07:04.065Z,10.69
2023-01-06T13:08:04.027Z,10.62
2023-01-06T13:09:05.526Z,10.69